Time,TemperatureF,DewpointF,PressureIn,WindDirection,WindDirectionDegrees,WindSpeedMPH,WindSpeedGustMPH,Humidity,HourlyPrecipIn,Conditions,Clouds,dailyrainin,SoftwareType,DateUTC
2013-04-12 00:11:00,26.1,24.0,30.10,SSE,167,0.0,-999.0,91,-99.99,,,0.00,weatherlink.com 1.10,2013-04-12 07:11:00,
2013-04-12 00:26:00,26.6,24.0,30.10,ESE,114,3.0,-999.0,90,-99.99,,,0.00,weatherlink.com 1.10,2013-04-12 07:26:00,
2013-04-12 00:41:00,27.0,24.0,30.09,ESE,117,0.0,-999.0,89,-99.99,,,0.00,weatherlink.com 1.10,2013-04-12 07:41:00,
2013-04-12 00:56:00,26.6,24.0,30.09,ESE,110,3.0,-999.0,88,-99.99,,,0.00,weatherlink.com 1.10,2013-04-12 07:56:00,
2013-04-12 01:12:00,26.7,24.0,30.09,SE,136,1.0,-999.0,90,-99.99,,,0.00,weatherlink.com 1.10,2013-04-12 08:12:00,
2013-04-12 01:26:00,26.3,24.0,30.08,SE,135,0.0,-999.0,89,-99.99,,,0.00,weatherlink.com 1.10,2013-04-12 08:26:00,
2013-04-12 01:41:00,26.6,24.0,30.09,ESE,114,2.0,-999.0,90,-99.99,,,0.00,weatherlink.com 1.10,2013-04-12 08:41:00,
2013-04-12 01:56:00,26.0,23.0,30.07,ENE,77,4.0,-999.0,89,-99.99,,,0.00,weatherlink.com 1.10,2013-04-12 08:56:00,
2013-04-12 02:11:00,26.2,23.0,30.07,ESE,120,3.0,-999.0,89,-99.99,,,0.00,weatherlink.com 1.10,2013-04-12 09:11:00,
2013-04-12 02:26:00,25.9,24.0,30.07,SE,129,2.0,-999.0,91,-99.99,,,0.00,weatherlink.com 1.10,2013-04-12 09:26:00,
2013-04-12 02:41:00,27.0,25.0,30.07,ESE,118,3.0,-999.0,91,-99.99,,,0.00,weatherlink.com 1.10,2013-04-12 09:41:00,
2013-04-12 02:56:00,25.2,23.0,30.06,SE,129,1.0,-999.0,90,-99.99,,,0.00,weatherlink.com 1.10,2013-04-12 09:56:00,
2013-04-12 03:11:00,26.1,24.0,30.05,SE,137,1.0,-999.0,90,-99.99,,,0.00,weatherlink.com 1.10,2013-04-12 10:11:00,
2013-04-12 03:26:00,25.5,23.0,30.05,ESE,122,3.0,-999.0,90,-99.99,,,0.00,weatherlink.com 1.10,2013-04-12 10:26:00,
2013-04-12 03:41:00,25.5,23.0,30.05,SE,129,1.0,-999.0,90,-99.99,,,0.00,weatherlink.com 1.10,2013-04-12 10:41:00,
2013-04-12 03:56:00,25.3,23.0,30.05,ESE,111,0.0,-999.0,91,-99.99,,,0.00,weatherlink.com 1.10,2013-04-12 10:56:00,
2013-04-12 04:11:00,25.9,24.0,30.05,SSE,149,2.0,-999.0,91,-99.99,,,0.00,weatherlink.com 1.10,2013-04-12 11:11:00,
2013-04-12 04:27:00,29.2,26.0,30.05,East,91,2.0,-999.0,86,-99.99,,,0.00,weatherlink.com 1.10,2013-04-12 11:27:00,
2013-04-12 04:42:00,29.7,26.0,30.05,East,89,0.0,-999.0,87,-99.99,,,0.00,weatherlink.com 1.10,2013-04-12 11:42:00,
2013-04-12 04:57:00,31.3,28.0,30.05,SE,130,6.0,-999.0,87,-99.99,,,0.00,weatherlink.com 1.10,2013-04-12 11:57:00,
2013-04-12 05:12:00,33.3,28.0,30.05,ESE,105,3.0,-999.0,82,-99.99,,,0.00,weatherlink.com 1.10,2013-04-12 12:12:00,
2013-04-12 05:26:00,33.6,28.0,30.05,SE,128,4.0,-999.0,81,-99.99,,,0.00,weatherlink.com 1.10,2013-04-12 12:26:00,
2013-04-12 05:41:00,33.9,28.0,30.04,SE,129,9.0,-999.0,80,-99.99,,,0.00,weatherlink.com 1.10,2013-04-12 12:41:00,
2013-04-12 05:56:00,33.1,28.0,30.04,ESE,117,5.0,-999.0,80,-99.99,,,0.00,weatherlink.com 1.10,2013-04-12 12:56:00,
2013-04-12 06:11:00,32.7,27.0,30.04,NNE,25,0.0,-999.0,80,-99.99,,,0.00,weatherlink.com 1.10,2013-04-12 13:11:00,
2013-04-12 06:26:00,31.9,27.0,30.03,ENE,78,2.0,-999.0,81,-99.99,,,0.00,weatherlink.com 1.10,2013-04-12 13:26:00,
2013-04-12 06:41:00,32.1,27.0,30.03,ESE,105,4.0,-999.0,81,-99.99,,,0.00,weatherlink.com 1.10,2013-04-12 13:41:00,
2013-04-12 06:56:00,33.2,28.0,30.03,ESE,115,5.0,-999.0,80,-99.99,,,0.00,weatherlink.com 1.10,2013-04-12 13:56:00,
2013-04-12 07:11:00,33.3,27.0,30.03,ESE,121,2.0,-999.0,79,-99.99,,,0.00,weatherlink.com 1.10,2013-04-12 14:11:00,
2013-04-12 07:26:00,34.6,29.0,30.03,ESE,114,2.0,-999.0,80,-99.99,,,0.00,weatherlink.com 1.10,2013-04-12 14:26:00,
2013-04-12 07:41:00,37.2,30.0,30.02,ESE,122,5.0,-999.0,74,-99.99,,,0.00,weatherlink.com 1.10,2013-04-12 14:41:00,
2013-04-12 07:56:00,38.4,30.0,30.02,SE,135,9.0,-999.0,71,-99.99,,,0.00,weatherlink.com 1.10,2013-04-12 14:56:00,
2013-04-12 08:11:00,39.7,30.0,30.01,SE,131,9.0,-999.0,68,-99.99,,,0.00,weatherlink.com 1.10,2013-04-12 15:11:00,
2013-04-12 08:26:00,40.5,29.0,30.01,SE,134,9.0,-999.0,65,-99.99,,,0.00,weatherlink.com 1.10,2013-04-12 15:26:00,
2013-04-12 08:41:00,41.7,29.0,30.01,SE,137,13.0,-999.0,60,-99.99,,,0.00,weatherlink.com 1.10,2013-04-12 15:41:00,
2013-04-12 08:56:00,42.5,29.0,30.00,ESE,123,12.0,-999.0,59,-99.99,,,0.00,weatherlink.com 1.10,2013-04-12 15:56:00,
2013-04-12 09:11:00,43.4,29.0,30.00,ESE,117,13.0,-999.0,58,-99.99,,,0.00,weatherlink.com 1.10,2013-04-12 16:11:00,
2013-04-12 09:26:00,44.6,29.0,29.99,SSE,165,15.0,-999.0,54,-99.99,,,0.00,weatherlink.com 1.10,2013-04-12 16:26:00,
2013-04-12 09:41:00,45.3,29.0,29.98,SSE,152,13.0,-999.0,54,-99.99,,,0.00,weatherlink.com 1.10,2013-04-12 16:41:00,
2013-04-12 09:56:00,45.6,28.0,29.98,SSE,157,16.0,-999.0,51,-99.99,,,0.00,weatherlink.com 1.10,2013-04-12 16:56:00,
2013-04-12 10:11:00,46.6,29.0,29.97,SSE,149,14.0,-999.0,50,-99.99,,,0.00,weatherlink.com 1.10,2013-04-12 17:11:00,
2013-04-12 10:26:00,47.5,30.0,29.97,SSE,155,10.0,-999.0,51,-99.99,,,0.00,weatherlink.com 1.10,2013-04-12 17:26:00,
2013-04-12 10:41:00,48.4,28.0,29.96,SSE,162,12.0,-999.0,45,-99.99,,,0.00,weatherlink.com 1.10,2013-04-12 17:41:00,
2013-04-12 10:56:00,48.9,29.0,29.95,SSE,156,11.0,-999.0,46,-99.99,,,0.00,weatherlink.com 1.10,2013-04-12 17:56:00,
2013-04-12 11:11:00,50.5,28.0,29.95,SSE,158,11.0,-999.0,42,-99.99,,,0.00,weatherlink.com 1.10,2013-04-12 18:11:00,
2013-04-12 12:27:00,54.5,24.0,29.91,SSW,197,10.0,-999.0,31,-99.99,,,0.00,weatherlink.com 1.10,2013-04-12 19:27:00,
2013-04-12 12:41:00,55.5,24.0,29.90,SSE,161,10.0,-999.0,30,-99.99,,,0.00,weatherlink.com 1.10,2013-04-12 19:41:00,
2013-04-12 12:56:00,55.7,25.0,29.90,SSE,160,9.0,-999.0,31,-99.99,,,0.00,weatherlink.com 1.10,2013-04-12 19:56:00,
2013-04-12 13:11:00,55.9,25.0,29.89,South,174,5.0,-999.0,30,-99.99,,,0.00,weatherlink.com 1.10,2013-04-12 20:11:00,
2013-04-12 13:26:00,56.5,24.0,29.89,SW,224,8.0,-999.0,29,-99.99,,,0.00,weatherlink.com 1.10,2013-04-12 20:26:00,
2013-04-12 13:42:00,56.6,22.0,29.89,WSW,244,4.0,-999.0,26,-99.99,,,0.00,weatherlink.com 1.10,2013-04-12 20:42:00,
2013-04-12 13:56:00,55.7,23.0,29.89,WNW,286,8.0,-999.0,28,-99.99,,,0.00,weatherlink.com 1.10,2013-04-12 20:56:00,
2013-04-12 14:11:00,55.7,22.0,29.89,West,278,5.0,-999.0,27,-99.99,,,0.00,weatherlink.com 1.10,2013-04-12 21:11:00,
2013-04-12 14:26:00,55.7,20.0,29.89,WNW,283,6.0,-999.0,25,-99.99,,,0.00,weatherlink.com 1.10,2013-04-12 21:26:00,
2013-04-12 14:41:00,56.0,20.0,29.89,West,261,8.0,-999.0,25,-99.99,,,0.00,weatherlink.com 1.10,2013-04-12 21:41:00,
2013-04-12 14:56:00,55.9,20.0,29.89,West,263,7.0,-999.0,25,-99.99,,,0.00,weatherlink.com 1.10,2013-04-12 21:56:00,
2013-04-12 15:11:00,55.3,22.0,29.87,NW,314,8.0,-999.0,27,-99.99,,,0.00,weatherlink.com 1.10,2013-04-12 22:11:00,
2013-04-12 15:26:00,55.2,18.0,29.87,WNW,289,11.0,-999.0,23,-99.99,,,0.00,weatherlink.com 1.10,2013-04-12 22:26:00,
2013-04-12 15:41:00,54.7,19.0,29.86,WNW,301,7.0,-999.0,25,-99.99,,,0.00,weatherlink.com 1.10,2013-04-12 22:41:00,
2013-04-12 15:57:00,54.3,21.0,29.85,West,278,11.0,-999.0,27,-99.99,,,0.00,weatherlink.com 1.10,2013-04-12 22:57:00,
2013-04-12 16:11:00,54.0,21.0,29.84,West,274,14.0,-999.0,28,-99.99,,,0.00,weatherlink.com 1.10,2013-04-12 23:11:00,
2013-04-12 16:26:00,53.2,20.0,29.85,West,278,6.0,-999.0,27,-99.99,,,0.00,weatherlink.com 1.10,2013-04-12 23:26:00,
2013-04-12 16:41:00,52.5,20.0,29.84,West,278,14.0,-999.0,28,-99.99,,,0.00,weatherlink.com 1.10,2013-04-12 23:41:00,
2013-04-12 17:11:00,51.5,22.0,29.85,WNW,285,18.0,-999.0,31,-99.99,,,0.00,weatherlink.com 1.10,2013-04-13 00:11:00,
2013-04-12 17:26:00,50.9,23.0,29.84,West,277,8.0,-999.0,34,-99.99,,,0.00,weatherlink.com 1.10,2013-04-13 00:26:00,
2013-04-12 17:41:00,50.7,23.0,29.83,West,259,7.0,-999.0,34,-99.99,,,0.00,weatherlink.com 1.10,2013-04-13 00:41:00,
2013-04-12 17:56:00,50.4,24.0,29.82,West,267,8.0,-999.0,36,-99.99,,,0.00,weatherlink.com 1.10,2013-04-13 00:56:00,
2013-04-12 18:12:00,49.9,24.0,29.82,WSW,248,10.0,-999.0,37,-99.99,,,0.00,weatherlink.com 1.10,2013-04-13 01:12:00,
2013-04-12 18:27:00,49.2,25.0,29.82,SW,235,3.0,-999.0,39,-99.99,,,0.00,weatherlink.com 1.10,2013-04-13 01:27:00,
2013-04-12 18:42:00,48.7,25.0,29.81,West,266,11.0,-999.0,40,-99.99,,,0.00,weatherlink.com 1.10,2013-04-13 01:42:00,
2013-04-12 18:57:00,48.2,25.0,29.80,West,260,13.0,-999.0,41,-99.99,,,0.00,weatherlink.com 1.10,2013-04-13 01:57:00,
2013-04-12 19:12:00,47.6,27.0,29.80,WSW,255,11.0,-999.0,45,-99.99,,,0.00,weatherlink.com 1.10,2013-04-13 02:12:00,
2013-04-12 19:27:00,47.0,29.0,29.79,SW,224,5.0,-999.0,50,-99.99,,,0.00,weatherlink.com 1.10,2013-04-13 02:27:00,
2013-04-12 19:42:00,46.7,31.0,29.79,WSW,245,6.0,-999.0,55,-99.99,,,0.00,weatherlink.com 1.10,2013-04-13 02:42:00,
2013-04-12 19:57:00,46.2,33.0,29.79,SW,217,14.0,-999.0,60,-99.99,,,0.00,weatherlink.com 1.10,2013-04-13 02:57:00,
2013-04-12 20:12:00,45.8,33.0,29.79,West,277,15.0,-999.0,62,-99.99,,,0.00,weatherlink.com 1.10,2013-04-13 03:12:00,
2013-04-12 20:27:00,45.3,34.0,29.79,WSW,255,13.0,-999.0,65,-99.99,,,0.00,weatherlink.com 1.10,2013-04-13 03:27:00,
2013-04-12 20:42:00,44.9,34.0,29.80,West,259,12.0,-999.0,66,-99.99,,,0.00,weatherlink.com 1.10,2013-04-13 03:42:00,
2013-04-12 20:57:00,44.3,34.0,29.79,WSW,256,11.0,-999.0,67,-99.99,,,0.00,weatherlink.com 1.10,2013-04-13 03:57:00,
2013-04-12 21:12:00,44.4,34.0,29.79,WSW,240,9.0,-999.0,66,-99.99,,,0.00,weatherlink.com 1.10,2013-04-13 04:12:00,
2013-04-12 21:27:00,44.6,34.0,29.80,WSW,247,15.0,-999.0,66,-99.99,,,0.00,weatherlink.com 1.10,2013-04-13 04:27:00,
2013-04-12 21:42:00,44.6,34.0,29.80,WSW,248,10.0,-999.0,67,-99.99,,,0.00,weatherlink.com 1.10,2013-04-13 04:42:00,
2013-04-12 21:57:00,44.0,34.0,29.79,WSW,248,10.0,-999.0,68,-99.99,,,0.00,weatherlink.com 1.10,2013-04-13 04:57:00,
2013-04-12 22:12:00,43.5,34.0,29.79,WSW,257,11.0,-999.0,69,-99.99,,,0.00,weatherlink.com 1.10,2013-04-13 05:12:00,
2013-04-12 22:27:00,43.3,34.0,29.80,WNW,283,13.0,-999.0,69,-99.99,,,0.00,weatherlink.com 1.10,2013-04-13 05:27:00,
2013-04-12 22:57:00,43.5,34.0,29.80,WNW,283,6.0,-999.0,68,-99.99,,,0.00,weatherlink.com 1.10,2013-04-13 05:57:00,
2013-04-12 23:12:00,42.4,33.0,29.79,West,273,11.0,-999.0,69,-99.99,,,0.00,weatherlink.com 1.10,2013-04-13 06:12:00,
2013-04-12 23:27:00,41.9,32.0,29.79,WNW,302,12.0,-999.0,69,-99.99,,,0.00,weatherlink.com 1.10,2013-04-13 06:27:00,
2013-04-12 23:42:00,41.8,33.0,29.80,WNW,298,5.0,-999.0,70,-99.99,,,0.00,weatherlink.com 1.10,2013-04-13 06:42:00,
2013-04-12 23:57:00,41.4,32.0,29.80,WNW,293,4.0,-999.0,70,-99.99,,,0.00,weatherlink.com 1.10,2013-04-13 06:57:00,